Pittsburgh, Pennsylvania
Traffic Map
Current Weather Conditions
Pittsburgh, Pennsylvania
Few Clouds
Few Clouds
13°
Feels Like: 13°
Wind Chill: 13° Ceiling: Unl
Heat Index: 13° Visibility: 10mi
Dew Point: Wind: 15mph
Humidity: 60% Direction: 240° (WSW)
Pressure: 29.98in Gusts: 0mph
Raw Report DataKAGC 191653Z 24013KT 10SM FEW023 13/06 A2998 RMK AO2 SLP158 T01330056
Traffic Incident Summary
Active as of:
Severity:
Category:
InformationThere was an issue retrieving the traffic information for this location. Please try a different location or try again shortly.
Advertisements
Track Severe Weather on mobile